Terminal Aerodrome Forecast
Issued by NWS

Home | Current Version | Previous Version | Text Only | Print | Product List | Glossary Off
Versions: 1 2 3 4 5 6 7 8 9 10 11 12 13 14 15 16 17 18 19 20 21 22 23 24 25 26 27 28 29 30

000
FTUS43 KABR 210434 AAE
TAFATY
TAF AMD
KATY 210434Z 2105/2124 15011KT 1/4SM FG VV002
     FM210800 15008KT 1/4SM FG VCSH OVC002
     FM211700 13006KT 1/2SM FG OVC003
     FM211800 12006KT 3/4SM BR OVC003
     FM212000 11004KT 2SM BR OVC008
     FM212100 28004KT 3SM BR OVC008
     FM212200 30004KT 3SM BR OVC003=

USA.gov is the U.S. government's official web portal to all federal, state and local government web resources and services.